createdAt,value
2022-12-06T00:01:26.463Z,6.76
2022-12-06T00:03:59.561Z,6.86
2022-12-06T00:06:49.336Z,6.78
2022-12-06T00:09:32.100Z,6.76
2022-12-06T00:11:59.749Z,6.46
2022-12-06T00:14:27.259Z,6.75
2022-12-06T00:16:54.365Z,6.75
2022-12-06T00:19:23.612Z,6.60
2022-12-06T00:21:50.769Z,6.74
2022-12-06T00:24:20.513Z,6.70
2022-12-06T00:26:49.363Z,6.72
2022-12-06T00:29:23.863Z,6.69
2022-12-06T00:31:57.864Z,6.74
2022-12-06T00:34:25.023Z,6.71
2022-12-06T00:36:52.062Z,6.85
2022-12-06T00:39:19.212Z,6.84
2022-12-06T00:41:46.377Z,6.83
2022-12-06T00:44:13.422Z,6.81
2022-12-06T00:46:40.606Z,6.80
2022-12-06T00:49:09.278Z,6.79
2022-12-06T00:51:37.937Z,6.75
2022-12-06T00:54:05.954Z,6.73
2022-12-06T00:56:35.149Z,6.70
2022-12-06T00:59:02.109Z,6.55
2022-12-06T01:01:30.969Z,6.71
2022-12-06T01:04:01.274Z,6.70
2022-12-06T01:06:30.535Z,6.72
2022-12-06T01:08:59.998Z,6.71
2022-12-06T01:11:28.361Z,6.70
2022-12-06T01:13:56.687Z,6.68
2022-12-06T01:16:27.142Z,6.69
2022-12-06T01:18:59.520Z,6.53
2022-12-06T01:21:28.004Z,6.64
2022-12-06T01:23:54.932Z,6.68
2022-12-06T01:26:27.894Z,6.66
2022-12-06T01:28:55.077Z,6.59
2022-12-06T01:31:22.106Z,6.58
2022-12-06T01:33:49.085Z,6.66
2022-12-06T01:36:26.005Z,6.66
2022-12-06T01:38:55.608Z,6.61
2022-12-06T01:41:25.191Z,6.65
2022-12-06T01:43:52.923Z,6.61
2022-12-06T01:46:35.116Z,6.62
2022-12-06T01:49:14.100Z,6.59
2022-12-06T01:51:49.607Z,6.59
2022-12-06T01:54:19.846Z,6.59
2022-12-06T01:56:49.119Z,6.44
2022-12-06T01:59:16.956Z,6.53
2022-12-06T02:01:44.377Z,6.35
2022-12-06T02:04:11.417Z,6.50
2022-12-06T02:06:40.540Z,6.51
2022-12-06T02:09:09.662Z,6.48
2022-12-06T02:11:37.234Z,6.47
2022-12-06T02:14:07.729Z,6.39
2022-12-06T02:17:11.073Z,6.32
2022-12-06T02:19:44.169Z,6.36
2022-12-06T02:22:33.330Z,6.32
2022-12-06T02:25:00.153Z,6.30
2022-12-06T02:27:48.346Z,6.29
2022-12-06T02:30:51.693Z,6.29
2022-12-06T02:33:36.539Z,6.15
2022-12-06T02:36:26.687Z,6.21
2022-12-06T02:39:12.943Z,6.29
2022-12-06T02:41:45.745Z,6.32
2022-12-06T02:44:23.706Z,6.24
2022-12-06T02:46:51.583Z,6.28
2022-12-06T02:49:19.889Z,6.21
2022-12-06T02:51:48.729Z,6.28
2022-12-06T02:54:17.728Z,6.32
2022-12-06T02:56:44.562Z,6.30
2022-12-06T02:59:12.032Z,6.26
2022-12-06T03:01:45.550Z,6.21
2022-12-06T03:04:31.760Z,6.24
2022-12-06T03:07:17.541Z,6.19
2022-12-06T03:09:56.426Z,6.24
2022-12-06T03:12:47.739Z,6.29
2022-12-06T03:15:36.177Z,6.24
2022-12-06T03:18:24.322Z,6.31
2022-12-06T03:20:56.521Z,6.31
2022-12-06T03:23:35.880Z,6.28
2022-12-06T03:26:05.537Z,6.35
2022-12-06T03:28:36.786Z,6.39
2022-12-06T03:31:10.923Z,6.41
2022-12-06T03:33:42.519Z,6.38
2022-12-06T03:36:13.458Z,6.34
2022-12-06T03:38:58.949Z,6.15
2022-12-06T03:41:33.276Z,6.43
2022-12-06T03:44:00.355Z,6.43
2022-12-06T03:46:32.905Z,6.29
2022-12-06T03:49:05.661Z,6.29
2022-12-06T03:51:37.737Z,6.31
2022-12-06T03:54:06.945Z,6.15
2022-12-06T03:56:36.956Z,6.23
2022-12-06T03:59:08.800Z,6.21
2022-12-06T04:01:36.517Z,6.28
2022-12-06T04:04:03.827Z,6.15
2022-12-06T04:06:30.914Z,6.21
2022-12-06T04:09:17.844Z,6.14
2022-12-06T04:11:44.957Z,6.19
2022-12-06T04:14:11.873Z,6.20
2022-12-06T04:16:57.176Z,6.28
2022-12-06T04:19:24.446Z,6.30
2022-12-06T04:22:10.088Z,6.28
2022-12-06T04:24:36.894Z,6.25
2022-12-06T04:27:22.406Z,6.28
2022-12-06T04:30:07.914Z,6.16
2022-12-06T04:32:53.253Z,6.21
2022-12-06T04:35:38.833Z,6.23
2022-12-06T04:38:24.429Z,6.28
2022-12-06T04:40:51.396Z,6.29
2022-12-06T04:43:36.601Z,6.32
2022-12-06T04:46:03.708Z,6.38
2022-12-06T04:48:30.635Z,6.41
2022-12-06T04:50:57.597Z,6.39
2022-12-06T04:53:24.707Z,6.29
2022-12-06T04:55:52.886Z,6.34
2022-12-06T04:58:19.869Z,6.35
2022-12-06T05:00:46.798Z,6.32
2022-12-06T05:03:15.394Z,6.38
2022-12-06T05:05:42.836Z,6.39
2022-12-06T05:08:10.397Z,6.39
2022-12-06T05:10:37.472Z,6.37
2022-12-06T05:13:05.085Z,6.47
2022-12-06T05:15:34.462Z,6.40
2022-12-06T05:18:01.545Z,6.42
2022-12-06T05:20:31.285Z,6.43
2022-12-06T05:22:58.369Z,6.52
2022-12-06T05:25:25.447Z,6.45
2022-12-06T05:27:52.612Z,6.50
2022-12-06T05:30:19.621Z,6.57
2022-12-06T05:32:55.443Z,6.29
2022-12-06T05:35:24.234Z,6.47
2022-12-06T05:37:51.545Z,6.48
2022-12-06T05:40:18.601Z,6.45
2022-12-06T05:42:45.848Z,6.24
2022-12-06T05:45:13.193Z,6.33
2022-12-06T05:47:40.025Z,6.45
2022-12-06T05:50:11.460Z,6.44
2022-12-06T05:52:38.553Z,6.40
2022-12-06T05:55:06.029Z,6.33
2022-12-06T05:57:33.010Z,6.33
2022-12-06T06:00:00.159Z,6.30
2022-12-06T06:02:28.469Z,6.35
2022-12-06T06:04:55.814Z,6.30
2022-12-06T06:07:22.918Z,6.34
2022-12-06T06:09:49.782Z,6.34
2022-12-06T06:12:16.897Z,6.36
2022-12-06T06:14:43.950Z,6.34
2022-12-06T06:17:11.207Z,6.40
2022-12-06T06:19:38.270Z,6.35
2022-12-06T06:22:05.378Z,6.43
2022-12-06T06:24:37.496Z,5.96
2022-12-06T06:27:05.428Z,6.50
2022-12-06T06:29:32.497Z,6.47
2022-12-06T06:32:01.006Z,6.47
2022-12-06T06:34:28.114Z,6.54
2022-12-06T06:36:55.072Z,6.57
2022-12-06T06:39:22.290Z,6.52
2022-12-06T06:41:49.278Z,6.59
2022-12-06T06:44:19.533Z,6.67
2022-12-06T06:46:46.838Z,6.70
2022-12-06T06:49:14.064Z,6.73
2022-12-06T06:51:41.446Z,6.78
2022-12-06T06:54:08.875Z,6.81
2022-12-06T06:56:35.939Z,6.80
2022-12-06T06:59:03.160Z,6.83
2022-12-06T07:01:30.223Z,6.86
2022-12-06T07:03:57.596Z,6.93
2022-12-06T07:06:24.667Z,6.93
2022-12-06T07:08:51.850Z,7.02
2022-12-06T07:11:18.707Z,7.05
2022-12-06T07:13:51.233Z,6.98
2022-12-06T07:16:20.205Z,6.97
2022-12-06T07:18:48.053Z,6.90
2022-12-06T07:21:16.334Z,7.10
2022-12-06T07:23:43.470Z,7.08
2022-12-06T07:26:13.484Z,7.18
2022-12-06T07:28:42.961Z,7.32
2022-12-06T07:31:16.907Z,7.19
2022-12-06T07:33:45.168Z,7.30
2022-12-06T07:36:14.298Z,7.41
2022-12-06T07:38:43.485Z,7.45
2022-12-06T07:41:32.356Z,7.45
2022-12-06T07:44:20.341Z,7.65
2022-12-06T07:46:48.461Z,7.55
2022-12-06T07:49:19.881Z,7.65
2022-12-06T07:51:47.944Z,7.69
2022-12-06T07:54:16.438Z,7.80
2022-12-06T07:56:44.429Z,7.89
2022-12-06T07:59:15.626Z,7.90
2022-12-06T08:01:43.549Z,7.85
2022-12-06T08:04:11.432Z,7.93
2022-12-06T08:06:38.866Z,8.02
2022-12-06T08:09:07.484Z,8.04
2022-12-06T08:11:35.005Z,8.10
2022-12-06T08:14:02.138Z,8.22
2022-12-06T08:16:29.658Z,8.25
2022-12-06T08:18:58.048Z,8.53
2022-12-06T08:21:27.179Z,8.61
2022-12-06T08:23:55.444Z,8.84
2022-12-06T08:26:28.677Z,8.75
2022-12-06T08:29:00.211Z,8.95
2022-12-06T08:31:28.274Z,8.99
2022-12-06T08:33:55.832Z,8.79
2022-12-06T08:36:24.427Z,8.81
2022-12-06T08:38:53.167Z,8.84
2022-12-06T08:41:39.442Z,8.78
2022-12-06T08:44:07.365Z,8.76
2022-12-06T08:46:35.384Z,8.66
2022-12-06T08:49:02.875Z,8.47
2022-12-06T08:51:31.462Z,8.54
2022-12-06T08:53:58.621Z,8.36
2022-12-06T08:56:26.690Z,8.31
2022-12-06T08:58:55.301Z,8.35
2022-12-06T09:01:31.220Z,8.28
2022-12-06T09:04:06.695Z,8.19
2022-12-06T09:06:34.529Z,8.27
2022-12-06T09:09:04.674Z,8.31
2022-12-06T09:11:31.877Z,8.25
2022-12-06T09:13:58.893Z,8.33
2022-12-06T09:16:26.599Z,8.50
2022-12-06T09:18:54.276Z,8.71
2022-12-06T09:21:24.086Z,8.83
2022-12-06T09:23:54.572Z,9.05
2022-12-06T09:26:22.279Z,9.18
2022-12-06T09:28:52.624Z,9.24
2022-12-06T09:31:20.005Z,9.55
2022-12-06T09:33:47.782Z,9.68
2022-12-06T09:36:27.121Z,9.66
2022-12-06T09:39:00.085Z,9.91
2022-12-06T09:41:46.307Z,10.06
2022-12-06T09:44:42.520Z,9.98
2022-12-06T09:47:22.684Z,9.93
2022-12-06T09:50:40.971Z,9.97
2022-12-06T09:53:32.974Z,10.03
2022-12-06T09:56:40.973Z,9.82
2022-12-06T09:59:59.379Z,9.88
2022-12-06T10:02:44.239Z,9.91
2022-12-06T10:05:28.363Z,9.87
2022-12-06T10:08:09.545Z,9.91
2022-12-06T10:10:42.735Z,9.85
2022-12-06T10:13:24.894Z,9.84
2022-12-06T10:16:17.058Z,9.86
2022-12-06T10:18:49.752Z,9.91
2022-12-06T10:21:53.284Z,9.87
2022-12-06T10:24:57.334Z,9.73
2022-12-06T10:27:49.530Z,9.86
2022-12-06T10:30:17.732Z,9.90
2022-12-06T10:32:51.164Z,9.86
2022-12-06T10:35:37.401Z,10.02
2022-12-06T10:41:39.961Z,10.05
2022-12-06T10:44:25.624Z,10.15
2022-12-06T10:47:21.972Z,10.30
2022-12-06T10:49:51.920Z,10.30
2022-12-06T10:52:25.061Z,10.37
2022-12-06T10:55:05.636Z,10.47
2022-12-06T10:57:46.929Z,10.51
2022-12-06T11:00:21.170Z,10.57
2022-12-06T11:03:05.169Z,10.65
2022-12-06T11:05:44.560Z,10.73
2022-12-06T11:08:20.027Z,10.78
2022-12-06T11:10:49.240Z,10.88
2022-12-06T11:13:19.626Z,10.92
2022-12-06T11:16:00.636Z,10.93
2022-12-06T11:18:29.857Z,11.06
2022-12-06T11:21:01.176Z,11.21
2022-12-06T11:23:45.885Z,11.26
2022-12-06T11:26:18.291Z,11.32
2022-12-06T11:29:05.280Z,11.33
2022-12-06T11:31:50.084Z,11.25
2022-12-06T11:34:32.148Z,11.35
2022-12-06T11:37:07.149Z,11.44
2022-12-06T11:39:35.302Z,11.64
2022-12-06T11:42:05.356Z,11.60
2022-12-06T11:44:49.742Z,11.70
2022-12-06T11:47:22.410Z,11.68
2022-12-06T11:49:53.639Z,11.70
2022-12-06T11:52:37.977Z,11.59
2022-12-06T11:55:17.955Z,11.72
2022-12-06T11:58:01.275Z,11.93
2022-12-06T12:00:31.483Z,12.16
2022-12-06T12:02:59.045Z,12.33
2022-12-06T12:05:30.678Z,12.43
2022-12-06T12:08:16.663Z,12.48
2022-12-06T12:10:47.545Z,12.75
2022-12-06T12:13:38.615Z,12.88
2022-12-06T12:16:21.117Z,13.03
2022-12-06T12:19:05.983Z,12.81
2022-12-06T12:21:39.991Z,12.91
2022-12-06T12:25:03.145Z,12.59
2022-12-06T12:27:39.614Z,12.53
2022-12-06T12:30:21.617Z,12.39
2022-12-06T12:32:51.937Z,12.30
2022-12-06T12:35:22.769Z,12.53
2022-12-06T12:37:52.994Z,13.36
2022-12-06T12:40:30.630Z,13.79
2022-12-06T12:43:05.565Z,13.50
2022-12-06T12:45:33.271Z,13.19
2022-12-06T12:48:02.563Z,12.79
2022-12-06T12:50:32.787Z,12.43
2022-12-06T12:53:00.819Z,12.13
2022-12-06T12:55:31.038Z,12.06
2022-12-06T12:58:00.695Z,11.97
2022-12-06T13:00:46.255Z,11.89
2022-12-06T13:03:49.696Z,11.79
2022-12-06T13:06:07.436Z,11.75
2022-12-06T13:08:38.359Z,11.68
2022-12-06T13:11:06.581Z,11.67
2022-12-06T13:13:55.743Z,11.63
2022-12-06T13:16:34.806Z,11.50
2022-12-06T13:19:02.511Z,11.44
2022-12-06T13:21:36.303Z,11.38
2022-12-06T13:24:18.421Z,11.08
2022-12-06T13:26:53.880Z,11.15
2022-12-06T13:29:38.771Z,10.93
2022-12-06T13:32:22.722Z,10.90
2022-12-06T13:34:55.179Z,10.74
2022-12-06T13:37:52.268Z,10.66
2022-12-06T13:40:46.026Z,10.51
2022-12-06T13:43:25.985Z,10.48
2022-12-06T13:46:24.477Z,10.26
2022-12-06T13:49:00.662Z,10.34
2022-12-06T13:51:34.752Z,10.30
2022-12-06T13:54:04.801Z,10.24
2022-12-06T13:56:34.801Z,10.22
2022-12-06T13:59:04.779Z,10.15
2022-12-06T14:01:49.661Z,9.99
2022-12-06T14:07:00.322Z,9.90
2022-12-06T14:09:37.542Z,9.72
2022-12-06T14:12:10.379Z,9.66
2022-12-06T14:14:59.809Z,9.75
2022-12-06T14:18:03.556Z,9.70
2022-12-06T14:20:48.793Z,9.68
2022-12-06T14:23:26.425Z,9.65
2022-12-06T14:26:15.316Z,9.55
2022-12-06T14:28:43.470Z,9.51
2022-12-06T14:31:43.939Z,9.58
2022-12-06T14:34:29.105Z,9.49
2022-12-06T14:40:16.525Z,9.58
2022-12-06T14:43:02.787Z,9.39
2022-12-06T14:45:35.018Z,9.53
2022-12-06T14:48:04.434Z,9.50
2022-12-06T14:50:41.239Z,9.51
2022-12-06T14:53:27.872Z,9.55
2022-12-06T14:56:29.985Z,9.49
2022-12-06T14:58:59.620Z,9.38
2022-12-06T15:01:32.257Z,9.55
2022-12-06T15:04:06.359Z,9.45
2022-12-06T15:06:36.140Z,9.36
2022-12-06T15:09:03.437Z,9.49
2022-12-06T15:12:00.276Z,9.50
2022-12-06T15:14:48.097Z,9.44
2022-12-06T15:17:22.526Z,9.53
2022-12-06T15:19:53.696Z,9.53
2022-12-06T15:22:29.291Z,9.41
2022-12-06T15:25:00.420Z,9.54
2022-12-06T15:27:28.186Z,9.60
2022-12-06T15:29:55.914Z,9.62
2022-12-06T15:32:26.019Z,9.61
2022-12-06T15:34:56.175Z,9.61
2022-12-06T15:37:38.819Z,9.53
2022-12-06T15:40:07.681Z,9.58
2022-12-06T15:42:36.275Z,9.54
2022-12-06T15:45:03.710Z,9.48
2022-12-06T15:47:31.673Z,9.46
2022-12-06T15:49:59.040Z,9.38
2022-12-06T15:52:27.799Z,9.23
2022-12-06T15:54:54.928Z,9.17
2022-12-06T15:57:22.108Z,9.20
2022-12-06T15:59:49.872Z,9.19
2022-12-06T16:02:19.432Z,9.10
2022-12-06T16:04:50.584Z,8.98
2022-12-06T16:07:19.406Z,8.94
2022-12-06T16:09:48.026Z,8.95
2022-12-06T16:12:15.532Z,8.79
2022-12-06T16:14:42.796Z,8.84
2022-12-06T16:17:09.987Z,8.89
2022-12-06T16:19:55.857Z,8.82
2022-12-06T16:22:43.322Z,8.74
2022-12-06T16:25:10.765Z,8.72
2022-12-06T16:27:55.704Z,8.60
2022-12-06T16:30:58.771Z,8.52
2022-12-06T16:33:45.683Z,8.48
2022-12-06T16:36:51.894Z,8.43
2022-12-06T16:39:24.011Z,8.40
2022-12-06T16:41:50.990Z,8.47
2022-12-06T16:44:17.859Z,8.38
2022-12-06T16:46:46.795Z,8.32
2022-12-06T16:52:05.727Z,8.19
2022-12-06T16:54:32.928Z,8.14
2022-12-06T16:56:59.961Z,8.00
2022-12-06T16:59:27.215Z,8.02
2022-12-06T17:01:55.648Z,8.00
2022-12-06T17:04:23.370Z,7.90
2022-12-06T17:06:50.724Z,7.78
2022-12-06T17:09:17.671Z,7.43
2022-12-06T17:12:02.716Z,7.57
2022-12-06T17:14:30.154Z,7.56
2022-12-06T17:17:03.551Z,7.35
2022-12-06T17:19:32.373Z,7.28
2022-12-06T17:22:04.285Z,7.16
2022-12-06T17:24:31.324Z,7.15
2022-12-06T17:26:59.088Z,7.02
2022-12-06T17:29:26.357Z,6.98
2022-12-06T17:32:02.732Z,6.90
2022-12-06T17:34:29.800Z,6.78
2022-12-06T17:37:03.285Z,6.79
2022-12-06T17:39:30.274Z,6.68
2022-12-06T17:42:16.006Z,6.71
2022-12-06T17:44:43.099Z,6.71
2022-12-06T17:47:10.114Z,6.72
2022-12-06T17:49:38.505Z,6.67
2022-12-06T17:52:06.072Z,6.64
2022-12-06T17:54:34.788Z,6.55
2022-12-06T17:57:05.984Z,6.54
2022-12-06T17:59:39.937Z,6.52
2022-12-06T18:05:24.734Z,6.38
2022-12-06T18:07:51.861Z,6.36
2022-12-06T18:10:22.245Z,6.31
2022-12-06T18:13:01.205Z,6.30
2022-12-06T18:15:38.448Z,6.19
2022-12-06T18:18:15.357Z,6.17
2022-12-06T18:20:44.015Z,6.09
2022-12-06T18:23:11.050Z,6.09
2022-12-06T18:25:41.425Z,6.05
2022-12-06T18:28:09.015Z,6.08
2022-12-06T18:30:42.530Z,5.98
2022-12-06T18:33:16.234Z,5.91
2022-12-06T18:35:51.284Z,5.96
2022-12-06T18:38:28.402Z,5.91
2022-12-06T18:41:22.654Z,5.82
2022-12-06T18:43:49.815Z,5.79
2022-12-06T18:46:27.993Z,5.77
2022-12-06T18:49:00.170Z,5.74
2022-12-06T18:51:31.002Z,5.70
2022-12-06T18:53:59.518Z,5.77
2022-12-06T18:56:27.792Z,5.74
2022-12-06T18:58:55.022Z,5.74
2022-12-06T19:01:25.066Z,5.75
2022-12-06T19:03:52.858Z,5.72
2022-12-06T19:06:25.379Z,5.66
2022-12-06T19:12:03.366Z,5.64
2022-12-06T19:14:30.539Z,5.68
2022-12-06T19:16:58.347Z,5.67
2022-12-06T19:19:26.720Z,5.68
2022-12-06T19:21:54.704Z,5.60
2022-12-06T19:24:24.701Z,5.63
2022-12-06T19:26:59.312Z,5.66
2022-12-06T19:29:28.119Z,5.64
2022-12-06T19:31:55.137Z,5.69
2022-12-06T19:34:25.070Z,5.67
2022-12-06T19:36:53.625Z,5.61
2022-12-06T19:39:21.375Z,5.66
2022-12-06T19:42:06.852Z,5.66
2022-12-06T19:44:34.588Z,5.65
2022-12-06T19:47:02.787Z,5.64
2022-12-06T19:49:33.452Z,5.52
2022-12-06T19:52:04.226Z,5.50
2022-12-06T19:54:33.111Z,5.43
2022-12-06T19:57:01.397Z,5.41
2022-12-06T19:59:34.461Z,5.35
2022-12-06T20:02:03.442Z,5.28
2022-12-06T20:04:35.987Z,5.27
2022-12-06T20:07:05.002Z,5.22
2022-12-06T20:09:33.153Z,5.16
2022-12-06T20:12:01.808Z,5.16
2022-12-06T20:14:33.096Z,5.24
2022-12-06T20:17:00.693Z,5.16
2022-12-06T20:19:27.760Z,5.07
2022-12-06T20:21:55.300Z,5.02
2022-12-06T20:24:23.031Z,4.91
2022-12-06T20:26:52.354Z,4.92
2022-12-06T20:29:20.477Z,4.94
2022-12-06T20:32:11.625Z,4.90
2022-12-06T20:34:40.887Z,4.77
2022-12-06T20:37:08.297Z,4.93
2022-12-06T20:39:36.271Z,4.99
2022-12-06T20:42:05.865Z,4.83
2022-12-06T20:44:34.283Z,4.92
2022-12-06T20:47:01.503Z,4.93
2022-12-06T20:49:28.566Z,4.87
2022-12-06T20:51:56.703Z,4.91
2022-12-06T20:54:23.712Z,4.92
2022-12-06T20:56:53.674Z,4.89
2022-12-06T21:00:07.118Z,4.95
2022-12-06T21:02:35.188Z,4.88
2022-12-06T21:05:02.185Z,4.90
2022-12-06T21:07:29.033Z,4.91
2022-12-06T21:09:56.268Z,4.98
2022-12-06T21:12:23.234Z,5.06
2022-12-06T21:14:50.364Z,4.90
2022-12-06T21:17:17.329Z,4.79
2022-12-06T21:19:44.511Z,4.73
2022-12-06T21:22:11.781Z,4.69
2022-12-06T21:24:39.614Z,4.76
2022-12-06T21:27:06.586Z,4.82
2022-12-06T21:29:33.717Z,4.86
2022-12-06T21:32:01.700Z,4.84
2022-12-06T21:34:29.139Z,4.79
2022-12-06T21:36:56.158Z,4.81
2022-12-06T21:39:23.125Z,4.80
2022-12-06T21:41:50.600Z,4.77
2022-12-06T21:44:17.645Z,4.70
2022-12-06T21:46:44.829Z,4.70
2022-12-06T21:49:13.123Z,4.76
2022-12-06T21:51:40.341Z,4.84
2022-12-06T21:54:07.454Z,4.81
2022-12-06T21:56:35.124Z,4.72
2022-12-06T21:59:02.642Z,4.72
2022-12-06T22:01:31.143Z,4.69
2022-12-06T22:04:01.182Z,4.75
2022-12-06T22:06:28.357Z,4.68
2022-12-06T22:08:58.384Z,4.74
2022-12-06T22:11:25.380Z,4.66
2022-12-06T22:13:52.423Z,4.73
2022-12-06T22:16:19.570Z,4.72
2022-12-06T22:18:46.989Z,4.75
2022-12-06T22:21:19.401Z,4.76
2022-12-06T22:23:47.174Z,4.78
2022-12-06T22:26:17.724Z,4.89
2022-12-06T22:28:44.718Z,4.76
2022-12-06T22:31:13.146Z,4.86
2022-12-06T22:33:40.890Z,4.81
2022-12-06T22:36:08.778Z,4.82
2022-12-06T22:38:35.940Z,4.84
2022-12-06T22:41:03.254Z,4.80
2022-12-06T22:43:30.787Z,4.90
2022-12-06T22:46:09.708Z,4.94
2022-12-06T22:48:37.216Z,4.89
2022-12-06T22:51:24.783Z,4.94
2022-12-06T22:53:57.591Z,4.78
2022-12-06T22:56:26.004Z,4.91
2022-12-06T22:58:57.977Z,4.93
2022-12-06T23:01:27.569Z,4.84
2022-12-06T23:03:59.332Z,4.88
2022-12-06T23:06:26.681Z,4.81
2022-12-06T23:08:58.058Z,4.86
2022-12-06T23:11:34.025Z,4.80
2022-12-06T23:14:03.285Z,4.84
2022-12-06T23:16:31.314Z,4.88
2022-12-06T23:19:00.395Z,4.88
2022-12-06T23:21:33.149Z,4.86
2022-12-06T23:24:03.137Z,4.90
2022-12-06T23:26:33.990Z,4.88
2022-12-06T23:29:01.720Z,4.87
2022-12-06T23:31:31.487Z,4.89
2022-12-06T23:34:01.933Z,4.93
2022-12-06T23:36:32.268Z,4.94
2022-12-06T23:38:59.690Z,4.86
2022-12-06T23:41:30.041Z,4.94
2022-12-06T23:43:58.873Z,4.89
2022-12-06T23:46:29.255Z,4.89
2022-12-06T23:48:56.819Z,5.00
2022-12-06T23:51:27.083Z,5.01
2022-12-06T23:53:59.456Z,5.04
2022-12-06T23:56:28.985Z,5.07
2022-12-06T23:58:56.353Z,5.10
